createdAt,value
2022-08-19T00:00:28.477Z,99878.55
2022-08-19T00:03:06.500Z,99872.73
2022-08-19T00:05:35.892Z,99870.69
2022-08-19T00:08:04.987Z,99869.23
2022-08-19T00:10:35.166Z,99869.55
2022-08-19T00:13:05.314Z,99869.18
2022-08-19T00:15:34.444Z,99869.33
2022-08-19T00:18:03.227Z,99867.23
2022-08-19T00:20:32.633Z,99867.06
2022-08-19T00:23:01.357Z,99866.58
2022-08-19T00:25:30.847Z,99869.05
2022-08-19T00:28:00.449Z,99873.57
2022-08-19T00:30:29.919Z,99874.16
2022-08-19T00:32:59.157Z,99877.16
2022-08-19T00:35:28.405Z,99878.06
2022-08-19T00:37:57.309Z,99871.81
2022-08-19T00:40:26.667Z,99865.98
2022-08-19T00:42:55.386Z,99864.95
2022-08-19T00:45:29.016Z,99861.55
2022-08-19T00:47:57.905Z,99858.91
2022-08-19T00:50:26.682Z,99855.40
2022-08-19T00:52:56.111Z,99855.41
2022-08-19T00:55:29.937Z,99850.66
2022-08-19T00:58:05.962Z,99844.73
2022-08-19T01:00:38.952Z,99839.66
2022-08-19T01:03:14.547Z,99834.20
2022-08-19T01:05:46.195Z,99832.25
2022-08-19T01:08:18.389Z,99826.09
2022-08-19T01:10:55.771Z,99822.45
2022-08-19T01:13:29.494Z,99825.73
2022-08-19T01:16:21.682Z,99828.46
2022-08-19T01:18:51.448Z,99823.38
2022-08-19T01:21:35.547Z,99814.57
2022-08-19T01:24:05.171Z,99812.88
2022-08-19T01:26:42.801Z,99813.19
2022-08-19T01:29:13.103Z,99811.46
2022-08-19T01:31:41.961Z,99803.10
2022-08-19T01:34:11.122Z,99795.37
2022-08-19T01:36:46.668Z,99800.91
2022-08-19T01:39:23.446Z,99802.56
2022-08-19T01:41:56.265Z,99800.98
2022-08-19T01:44:25.235Z,99799.08
2022-08-19T01:46:54.349Z,99795.66
2022-08-19T01:49:26.430Z,99793.80
2022-08-19T01:51:55.835Z,99786.04
2022-08-19T01:54:27.886Z,99779.99
2022-08-19T01:57:09.827Z,99774.27
2022-08-19T01:59:40.523Z,99767.50
2022-08-19T02:02:09.524Z,99770.46
2022-08-19T02:04:39.658Z,99772.06
2022-08-19T02:07:09.607Z,99767.05
2022-08-19T02:09:39.282Z,99762.73
2022-08-19T02:12:09.880Z,99761.55
2022-08-19T02:14:38.656Z,99756.00
2022-08-19T02:17:07.483Z,99755.09
2022-08-19T02:19:36.298Z,99752.81
2022-08-19T02:22:08.771Z,99761.56
2022-08-19T02:24:37.698Z,99765.85
2022-08-19T02:27:06.952Z,99764.90
2022-08-19T02:29:35.685Z,99764.08
2022-08-19T02:32:05.441Z,99760.96
2022-08-19T02:34:35.493Z,99755.84
2022-08-19T02:37:04.349Z,99756.09
2022-08-19T02:39:33.086Z,99752.52
2022-08-19T02:42:03.304Z,99750.02
2022-08-19T02:44:32.186Z,99746.45
2022-08-19T02:47:01.004Z,99743.71
2022-08-19T02:49:29.755Z,99741.91
2022-08-19T02:52:04.515Z,99735.94
2022-08-19T02:54:33.382Z,99733.02
2022-08-19T02:57:02.177Z,99731.83
2022-08-19T02:59:32.320Z,99734.02
2022-08-19T03:02:01.208Z,99733.19
2022-08-19T03:04:30.798Z,99734.79
2022-08-19T03:07:07.216Z,99741.05
2022-08-19T03:09:40.292Z,99747.60
2022-08-19T03:12:11.288Z,99746.70
2022-08-19T03:14:40.155Z,99746.42
2022-08-19T03:17:09.047Z,99748.95
2022-08-19T03:19:39.319Z,99748.23
2022-08-19T03:22:09.036Z,99749.02
2022-08-19T03:24:39.415Z,99743.88
2022-08-19T03:27:08.196Z,99744.77
2022-08-19T03:29:43.295Z,99745.47
2022-08-19T03:32:24.434Z,99747.23
2022-08-19T03:35:02.287Z,99745.05
2022-08-19T03:37:31.087Z,99750.56
2022-08-19T03:39:59.966Z,99753.40
2022-08-19T03:42:38.310Z,99750.02
2022-08-19T03:45:18.279Z,99746.19
2022-08-19T03:47:46.994Z,99743.63
2022-08-19T03:50:16.955Z,99746.90
2022-08-19T03:52:51.827Z,99748.39
2022-08-19T03:55:20.876Z,99745.55
2022-08-19T03:57:50.436Z,99743.98
2022-08-19T04:00:19.579Z,99745.84
2022-08-19T04:02:58.506Z,99751.48
2022-08-19T04:05:30.295Z,99750.14
2022-08-19T04:08:00.048Z,99753.55
2022-08-19T04:10:29.640Z,99754.71
2022-08-19T04:12:58.453Z,99754.20
2022-08-19T04:15:28.678Z,99759.56
2022-08-19T04:17:57.415Z,99762.78
2022-08-19T04:20:26.123Z,99760.38
2022-08-19T04:22:55.108Z,99760.27
2022-08-19T04:25:24.036Z,99762.63
2022-08-19T04:27:52.820Z,99766.66
2022-08-19T04:30:23.691Z,99763.73
2022-08-19T04:32:52.564Z,99755.98
2022-08-19T04:35:24.798Z,99752.05
2022-08-19T04:37:53.946Z,99753.14
2022-08-19T04:40:41.133Z,99759.34
2022-08-19T04:43:16.649Z,99772.65
2022-08-19T04:45:46.855Z,99774.09
2022-08-19T04:48:26.660Z,99771.13
2022-08-19T04:50:59.265Z,99770.09
2022-08-19T04:53:37.876Z,99767.07
2022-08-19T04:56:17.443Z,99769.56
2022-08-19T04:58:46.929Z,99773.08
2022-08-19T05:01:21.388Z,99768.44
2022-08-19T05:03:51.060Z,99762.63
2022-08-19T05:06:22.343Z,99758.48
2022-08-19T05:08:51.232Z,99756.55
2022-08-19T05:11:29.431Z,99758.89
2022-08-19T05:13:58.952Z,99759.75
2022-08-19T05:16:28.933Z,99766.20
2022-08-19T05:19:16.119Z,99766.94
2022-08-19T05:22:04.385Z,99767.75
2022-08-19T05:24:35.272Z,99774.60
2022-08-19T05:27:06.684Z,99770.08
2022-08-19T05:29:36.365Z,99766.29
2022-08-19T05:32:09.813Z,99760.60
2022-08-19T05:34:39.291Z,99758.33
2022-08-19T05:37:09.453Z,99755.73
2022-08-19T05:39:39.397Z,99759.07
2022-08-19T05:42:11.985Z,99762.65
2022-08-19T05:44:48.209Z,99768.86
2022-08-19T05:47:19.932Z,99771.96
2022-08-19T05:49:51.447Z,99774.48
2022-08-19T05:52:25.763Z,99770.14
2022-08-19T05:55:05.193Z,99770.89
2022-08-19T05:58:00.128Z,99768.20
2022-08-19T06:00:53.973Z,99769.52
2022-08-19T06:03:50.066Z,99769.01
2022-08-19T06:06:45.671Z,99773.33
2022-08-19T06:09:43.643Z,99769.77
2022-08-19T06:13:01.789Z,99759.33
2022-08-19T06:16:42.060Z,99763.55
2022-08-19T06:19:31.104Z,99768.70
2022-08-19T06:22:19.973Z,99766.70
2022-08-19T06:25:30.053Z,99765.47
2022-08-19T06:29:11.514Z,99764.88
2022-08-19T06:32:30.931Z,99769.72
2022-08-19T06:35:15.229Z,99774.55
2022-08-19T06:38:03.562Z,99775.81
2022-08-19T06:40:35.591Z,99779.65
2022-08-19T06:43:10.605Z,99780.55
2022-08-19T06:45:43.377Z,99784.42
2022-08-19T06:48:31.417Z,99781.50
2022-08-19T06:51:08.683Z,99781.72
2022-08-19T06:53:40.777Z,99784.86
2022-08-19T06:59:32.500Z,99786.36
2022-08-19T07:02:14.504Z,99785.33
2022-08-19T07:04:52.413Z,99787.27
2022-08-19T07:07:34.686Z,99796.19
2022-08-19T07:10:36.239Z,99787.95
2022-08-19T07:13:14.833Z,99790.79
2022-08-19T07:15:52.362Z,99797.10
2022-08-19T07:18:41.054Z,99808.89
2022-08-19T07:21:31.931Z,99816.85
2022-08-19T07:24:10.569Z,99820.30
2022-08-19T07:26:45.137Z,99816.44
2022-08-19T07:29:28.720Z,99815.39
2022-08-19T07:32:17.492Z,99824.91
2022-08-19T07:34:57.047Z,99832.69
2022-08-19T07:37:33.508Z,99831.32
2022-08-19T07:40:12.128Z,99831.64
2022-08-19T07:42:51.808Z,99828.39
2022-08-19T07:45:39.800Z,99830.69
2022-08-19T07:48:20.564Z,99828.83
2022-08-19T07:51:36.995Z,99832.25
2022-08-19T07:54:08.926Z,99836.99
2022-08-19T07:56:43.258Z,99837.36
2022-08-19T07:59:48.251Z,99840.90
2022-08-19T08:02:26.888Z,99847.52
2022-08-19T08:07:00.501Z,99856.43
2022-08-19T08:12:32.816Z,99867.04
2022-08-19T08:15:59.132Z,99867.85
2022-08-19T08:19:20.581Z,99868.83
2022-08-19T08:22:26.512Z,99872.54
2022-08-19T08:25:27.454Z,99874.29
2022-08-19T08:28:31.339Z,99884.17
2022-08-19T08:31:20.323Z,99884.33
2022-08-19T08:34:00.126Z,99879.51
2022-08-19T08:36:40.216Z,99878.48
2022-08-19T08:39:24.564Z,99875.59
2022-08-19T08:42:17.814Z,99878.27
2022-08-19T08:45:16.130Z,99871.94
2022-08-19T08:48:01.114Z,99870.45
2022-08-19T08:50:45.544Z,99870.77
2022-08-19T08:53:47.224Z,99861.79
2022-08-19T08:58:20.998Z,99859.84
2022-08-19T09:00:51.521Z,99852.95
2022-08-19T09:03:33.474Z,99851.40
2022-08-19T09:07:01.932Z,99843.66
2022-08-19T09:09:53.665Z,99845.57
2022-08-19T09:12:59.790Z,99848.10
2022-08-19T09:16:12.452Z,99855.70
2022-08-19T09:19:09.971Z,99857.77
2022-08-19T09:21:48.906Z,99857.92
2022-08-19T09:24:48.805Z,99855.91
2022-08-19T09:27:43.752Z,99854.61
2022-08-19T09:30:49.003Z,99852.28
2022-08-19T09:33:31.357Z,99849.64
2022-08-19T09:36:42.281Z,99846.98
2022-08-19T09:40:07.098Z,99853.42
2022-08-19T09:43:10.034Z,99847.90
2022-08-19T09:46:03.296Z,99844.90
2022-08-19T09:48:38.115Z,99843.71
2022-08-19T09:51:19.612Z,99841.95
2022-08-19T09:54:11.231Z,99844.08
2022-08-19T09:57:09.464Z,99845.30
2022-08-19T09:59:44.685Z,99844.95
2022-08-19T10:02:22.149Z,99846.31
2022-08-19T10:05:14.256Z,99838.29
2022-08-19T10:08:13.013Z,99831.79
2022-08-19T10:10:48.521Z,99826.83
2022-08-19T10:13:33.077Z,99824.43
2022-08-19T10:16:33.869Z,99821.27
2022-08-19T10:19:11.797Z,99819.13
2022-08-19T10:21:46.555Z,99811.35
2022-08-19T10:24:27.663Z,99808.33
2022-08-19T10:30:13.455Z,99819.81
2022-08-19T10:33:11.676Z,99824.37
2022-08-19T10:38:52.295Z,99815.11
2022-08-19T10:41:42.702Z,99812.14
2022-08-19T10:44:16.940Z,99814.04
2022-08-19T10:46:56.525Z,99811.48
2022-08-19T10:49:33.328Z,99811.24
2022-08-19T10:52:38.754Z,99806.63
2022-08-19T10:55:34.712Z,99808.06
2022-08-19T10:58:04.623Z,99810.58
2022-08-19T11:00:39.310Z,99812.59
2022-08-19T11:03:19.790Z,99815.72
2022-08-19T11:06:06.476Z,99819.30
2022-08-19T11:08:49.145Z,99817.48
2022-08-19T11:11:22.612Z,99815.38
2022-08-19T11:13:52.545Z,99812.15
2022-08-19T11:16:27.930Z,99811.59
2022-08-19T11:19:00.524Z,99814.05
2022-08-19T11:21:36.693Z,99818.29
2022-08-19T11:24:13.553Z,99813.73
2022-08-19T11:27:10.426Z,99813.15
2022-08-19T11:29:40.447Z,99807.83
2022-08-19T11:32:14.300Z,99802.66
2022-08-19T11:34:45.578Z,99797.49
2022-08-19T11:37:17.061Z,99798.54
2022-08-19T11:39:49.289Z,99804.34
2022-08-19T11:42:44.755Z,99799.96
2022-08-19T11:45:16.187Z,99795.31
2022-08-19T11:47:48.858Z,99801.56
2022-08-19T11:50:24.690Z,99805.19
2022-08-19T11:52:58.649Z,99805.33
2022-08-19T11:55:27.909Z,99806.67
2022-08-19T11:57:58.344Z,99809.80
2022-08-19T12:00:31.978Z,99808.66
2022-08-19T12:03:02.578Z,99803.55
2022-08-19T12:05:43.154Z,99797.42
2022-08-19T12:08:26.294Z,99796.38
2022-08-19T12:10:57.924Z,99799.23
2022-08-19T12:13:43.020Z,99801.08
2022-08-19T12:16:34.476Z,99797.20
2022-08-19T12:19:08.786Z,99793.30
2022-08-19T12:21:42.555Z,99799.58
2022-08-19T12:24:24.399Z,99802.88
2022-08-19T12:27:00.824Z,99803.06
2022-08-19T12:29:33.720Z,99801.85
2022-08-19T12:32:07.432Z,99800.45
2022-08-19T12:34:40.754Z,99796.46
2022-08-19T12:37:13.398Z,99797.14
2022-08-19T12:39:44.651Z,99798.00
2022-08-19T12:42:21.735Z,99802.37
2022-08-19T12:44:55.222Z,99801.63
2022-08-19T12:47:34.253Z,99806.61
2022-08-19T12:50:09.925Z,99807.10
2022-08-19T12:52:49.952Z,99804.00
2022-08-19T12:55:28.493Z,99798.50
2022-08-19T12:58:27.065Z,99802.44
2022-08-19T13:01:29.990Z,99808.55
2022-08-19T13:04:15.698Z,99806.59
2022-08-19T13:07:04.844Z,99805.80
2022-08-19T13:09:41.576Z,99800.81
2022-08-19T13:12:14.474Z,99787.48
2022-08-19T13:17:00.060Z,99784.27
2022-08-19T13:18:33.659Z,99789.33
2022-08-19T13:21:14.432Z,99792.00
2022-08-19T13:23:45.235Z,99789.93
2022-08-19T13:26:21.081Z,99790.27
2022-08-19T13:29:08.933Z,99784.95
2022-08-19T13:32:05.172Z,99786.87
2022-08-19T13:34:39.696Z,99787.58
2022-08-19T13:37:13.511Z,99789.66
2022-08-19T13:39:48.655Z,99788.98
2022-08-19T13:42:25.430Z,99785.57
2022-08-19T13:45:02.707Z,99781.73
2022-08-19T13:47:36.403Z,99784.30
2022-08-19T13:50:07.745Z,99788.80
2022-08-19T13:52:37.155Z,99789.84
2022-08-19T13:55:12.724Z,99793.54
2022-08-19T13:58:00.050Z,99790.77
2022-08-19T14:00:41.248Z,99791.02
2022-08-19T14:03:26.296Z,99792.31
2022-08-19T14:06:01.401Z,99791.61
2022-08-19T14:08:34.624Z,99793.79
2022-08-19T14:11:25.849Z,99795.10
2022-08-19T14:14:02.564Z,99793.45
2022-08-19T14:16:36.977Z,99792.00
2022-08-19T14:19:06.453Z,99791.36
2022-08-19T14:21:41.528Z,99797.52
2022-08-19T14:24:14.402Z,99794.13
2022-08-19T14:26:43.468Z,99797.78
2022-08-19T14:29:15.665Z,99798.57
2022-08-19T14:31:54.207Z,99797.86
2022-08-19T14:34:27.681Z,99797.17
2022-08-19T14:37:02.207Z,99794.65
2022-08-19T14:39:41.874Z,99791.05
2022-08-19T14:42:15.754Z,99787.13
2022-08-19T14:44:48.413Z,99783.84
2022-08-19T14:47:25.423Z,99775.55
2022-08-19T14:49:59.417Z,99773.54
2022-08-19T14:52:34.536Z,99776.89
2022-08-19T14:55:07.900Z,99775.70
2022-08-19T14:57:40.769Z,99775.38
2022-08-19T15:00:25.853Z,99773.23
2022-08-19T15:02:55.838Z,99770.66
2022-08-19T15:05:25.282Z,99769.87
2022-08-19T15:07:56.876Z,99767.65
2022-08-19T15:10:26.308Z,99764.14
2022-08-19T15:13:05.408Z,99760.80
2022-08-19T15:15:38.286Z,99758.89
2022-08-19T15:18:31.415Z,99756.16
2022-08-19T15:21:08.391Z,99756.05
2022-08-19T15:23:43.732Z,99755.85
2022-08-19T15:26:38.328Z,99755.19
2022-08-19T15:29:21.771Z,99753.04
2022-08-19T15:32:06.139Z,99749.98
2022-08-19T15:34:45.647Z,99748.69
2022-08-19T15:37:44.761Z,99749.42
2022-08-19T15:40:14.326Z,99746.99
2022-08-19T15:42:54.445Z,99744.76
2022-08-19T15:45:32.285Z,99742.48
2022-08-19T15:48:07.347Z,99740.96
2022-08-19T15:50:45.261Z,99741.14
2022-08-19T15:53:19.036Z,99748.31
2022-08-19T15:55:51.405Z,99747.46
2022-08-19T15:58:39.561Z,99745.78
2022-08-19T16:01:29.129Z,99747.70
2022-08-19T16:04:22.924Z,99745.27
2022-08-19T16:06:59.626Z,99745.29
2022-08-19T16:09:36.047Z,99741.08
2022-08-19T16:12:08.958Z,99740.20
2022-08-19T16:14:39.884Z,99736.98
2022-08-19T16:17:12.928Z,99735.52
2022-08-19T16:19:47.601Z,99733.81
2022-08-19T16:22:33.327Z,99736.38
2022-08-19T16:25:25.305Z,99738.84
2022-08-19T16:28:33.821Z,99740.70
2022-08-19T16:31:29.125Z,99738.88
2022-08-19T16:34:12.958Z,99741.59
2022-08-19T16:36:50.870Z,99738.80
2022-08-19T16:39:25.237Z,99734.94
2022-08-19T16:42:07.503Z,99736.50
2022-08-19T16:44:41.795Z,99739.85
2022-08-19T16:47:19.340Z,99740.64
2022-08-19T16:49:55.496Z,99743.84
2022-08-19T16:52:53.453Z,99748.08
2022-08-19T16:55:25.678Z,99755.14
2022-08-19T16:58:20.925Z,99761.59
2022-08-19T17:01:25.199Z,99767.22
2022-08-19T17:03:58.605Z,99772.52
2022-08-19T17:06:59.408Z,99773.48
2022-08-19T17:09:58.478Z,99775.23
2022-08-19T17:12:44.876Z,99772.63
2022-08-19T17:15:25.152Z,99774.98
2022-08-19T17:18:24.227Z,99780.55
2022-08-19T17:20:57.287Z,99787.34
2022-08-19T17:23:43.772Z,99787.14
2022-08-19T17:26:27.676Z,99792.46
2022-08-19T17:29:14.271Z,99797.79
2022-08-19T17:32:02.439Z,99803.31
2022-08-19T17:34:36.427Z,99810.11
2022-08-19T17:37:16.181Z,99816.70
2022-08-19T17:39:49.646Z,99822.51
2022-08-19T17:42:34.931Z,99825.06
2022-08-19T17:45:08.259Z,99824.62
2022-08-19T17:47:41.621Z,99829.73
2022-08-19T17:50:14.913Z,99832.27
2022-08-19T17:52:54.698Z,99845.24
2022-08-19T17:55:32.152Z,99851.02
2022-08-19T17:58:26.810Z,99867.31
2022-08-19T18:01:10.006Z,99893.46
2022-08-19T18:04:48.588Z,99905.73
2022-08-19T18:08:01.783Z,99899.49
2022-08-19T18:10:34.818Z,99905.34
2022-08-19T18:13:17.882Z,99905.05
2022-08-19T18:15:57.689Z,99896.91
2022-08-19T18:18:42.089Z,99887.83
2022-08-19T18:21:36.435Z,99874.33
2022-08-19T18:24:53.198Z,99874.41
2022-08-19T18:32:01.899Z,99894.89
2022-08-19T18:34:42.511Z,99892.60
2022-08-19T18:37:41.963Z,99897.36
2022-08-19T18:41:00.123Z,99906.48
2022-08-19T18:43:58.201Z,99905.36
2022-08-19T18:46:56.236Z,99912.76
2022-08-19T18:50:07.194Z,99915.82
2022-08-19T18:53:03.400Z,99916.80
2022-08-19T18:56:07.964Z,99926.84
2022-08-19T18:59:10.072Z,99928.39
2022-08-19T19:02:09.360Z,99919.19
2022-08-19T19:05:06.869Z,99903.80
2022-08-19T19:08:14.879Z,99901.37
2022-08-19T19:11:28.609Z,99905.31
2022-08-19T19:14:49.540Z,99909.04
2022-08-19T19:17:26.227Z,99907.59
2022-08-19T19:19:58.940Z,99901.91
2022-08-19T19:22:31.326Z,99901.09
2022-08-19T19:25:04.667Z,99898.91
2022-08-19T19:27:36.914Z,99892.10
2022-08-19T19:30:09.880Z,99893.41
2022-08-19T19:32:40.821Z,99895.23
2022-08-19T19:35:12.744Z,99902.88
2022-08-19T19:37:52.680Z,99901.18
2022-08-19T19:40:22.609Z,99896.55
2022-08-19T19:42:52.212Z,99890.34
2022-08-19T19:45:22.758Z,99880.66
2022-08-19T19:47:52.134Z,99883.90
2022-08-19T19:50:21.633Z,99893.81
2022-08-19T19:52:50.804Z,99894.04
2022-08-19T19:55:31.120Z,99893.16
2022-08-19T19:58:09.436Z,99900.06
2022-08-19T20:00:38.816Z,99903.70
2022-08-19T20:03:10.706Z,99902.09
2022-08-19T20:05:40.483Z,99902.27
2022-08-19T20:08:29.362Z,99915.48
2022-08-19T20:11:05.620Z,99932.33
2022-08-19T20:13:40.925Z,99940.98
2022-08-19T20:16:10.672Z,99951.33
2022-08-19T20:18:40.384Z,99971.17
2022-08-19T20:21:12.659Z,99990.81
2022-08-19T20:23:41.770Z,100001.02
2022-08-19T20:26:19.273Z,100004.92
2022-08-19T20:29:13.431Z,100016.73
2022-08-19T20:31:57.621Z,100013.39
2022-08-19T20:34:29.081Z,100016.48
2022-08-19T20:36:59.023Z,100008.84
2022-08-19T20:39:28.296Z,100008.52
2022-08-19T20:42:00.978Z,100009.27
2022-08-19T20:44:30.063Z,100008.84
2022-08-19T20:47:03.376Z,100006.25
2022-08-19T20:49:33.214Z,100006.91
2022-08-19T20:52:08.606Z,100014.85
2022-08-19T20:54:37.774Z,100012.80
2022-08-19T20:57:14.634Z,100008.04
2022-08-19T20:59:43.756Z,100011.77
2022-08-19T21:02:13.112Z,100019.98
2022-08-19T21:04:43.364Z,100025.12
2022-08-19T21:07:12.883Z,100029.93
2022-08-19T21:09:42.264Z,100035.61
2022-08-19T21:12:14.296Z,100032.64
2022-08-19T21:14:47.284Z,100030.27
2022-08-19T21:17:18.354Z,100024.36
2022-08-19T21:19:50.385Z,100015.05
2022-08-19T21:22:23.971Z,100013.16
2022-08-19T21:24:53.480Z,100008.08
2022-08-19T21:27:28.769Z,100007.75
2022-08-19T21:29:57.914Z,100015.74
2022-08-19T21:32:27.451Z,100015.97
2022-08-19T21:34:57.165Z,100018.77
2022-08-19T21:37:31.221Z,100012.52
2022-08-19T21:40:02.360Z,100005.98
2022-08-19T21:42:31.542Z,100002.69
2022-08-19T21:45:04.788Z,99997.08
2022-08-19T21:47:47.522Z,99991.67
2022-08-19T21:50:34.785Z,99991.13
2022-08-19T21:53:39.086Z,99986.05
2022-08-19T21:56:08.695Z,99981.89
2022-08-19T21:58:54.239Z,99976.70
2022-08-19T22:01:42.778Z,99963.09
2022-08-19T22:04:23.094Z,99954.65
2022-08-19T22:07:19.924Z,99949.20
2022-08-19T22:10:38.011Z,99941.47
2022-08-19T22:13:49.456Z,99936.95
2022-08-19T22:17:01.923Z,99936.73
2022-08-19T22:20:22.151Z,99930.79
2022-08-19T22:23:31.891Z,99947.09
2022-08-19T22:31:04.591Z,99985.35
2022-08-19T22:38:08.834Z,99991.45
2022-08-19T22:43:48.738Z,99995.35
2022-08-19T22:47:22.625Z,99992.54
2022-08-19T22:54:35.782Z,99979.83
2022-08-19T22:57:07.148Z,99977.30
2022-08-19T22:59:41.720Z,99981.02
2022-08-19T23:02:30.217Z,99982.42
2022-08-19T23:05:03.966Z,99990.63
2022-08-19T23:07:40.231Z,100004.10
2022-08-19T23:10:15.121Z,100014.25
2022-08-19T23:12:59.513Z,100019.09
2022-08-19T23:15:33.535Z,100021.80
2022-08-19T23:18:08.256Z,100020.48
2022-08-19T23:20:47.954Z,100022.59
2022-08-19T23:23:20.103Z,100024.96
2022-08-19T23:25:49.420Z,100026.84
2022-08-19T23:28:40.673Z,100028.06
2022-08-19T23:31:12.653Z,100034.73
2022-08-19T23:33:51.902Z,100035.70
2022-08-19T23:36:24.491Z,100040.42
2022-08-19T23:38:55.082Z,100041.63
2022-08-19T23:41:30.025Z,100041.32
2022-08-19T23:44:05.938Z,100043.53
2022-08-19T23:46:54.892Z,100043.59
2022-08-19T23:49:26.116Z,100039.29
2022-08-19T23:51:55.941Z,100036.90
2022-08-19T23:54:42.765Z,100037.23
2022-08-19T23:57:14.453Z,100035.70
2022-08-19T23:59:56.218Z,100026.07
